createdAt,value
2017-06-02T00:02:07.282Z,68.70
2017-06-02T00:04:34.279Z,68.70
2017-06-02T00:07:01.670Z,68.50
2017-06-02T00:09:28.619Z,68.60
2017-06-02T00:11:55.585Z,68.70
2017-06-02T00:14:22.867Z,68.20
2017-06-02T00:16:50.208Z,68.40
2017-06-02T00:19:17.542Z,68.40
2017-06-02T00:21:44.886Z,68.60
2017-06-02T00:24:12.171Z,68.60
2017-06-02T00:26:39.505Z,68.80
2017-06-02T00:29:06.802Z,68.90
2017-06-02T00:31:34.116Z,68.80
2017-06-02T00:34:01.467Z,69.10
2017-06-02T00:36:28.754Z,69.50
2017-06-02T00:38:56.046Z,69.80
2017-06-02T00:41:23.386Z,69.60
2017-06-02T00:43:50.677Z,69.20
2017-06-02T00:46:18.036Z,69.40
2017-06-02T00:48:45.537Z,69.10
2017-06-02T00:51:12.817Z,69.10
2017-06-02T00:53:40.117Z,68.90
2017-06-02T00:56:07.442Z,68.90
2017-06-02T00:58:34.809Z,69.00
2017-06-02T01:01:02.170Z,69.20
2017-06-02T01:03:29.526Z,69.40
2017-06-02T01:05:56.418Z,69.40
2017-06-02T01:08:23.725Z,69.70
2017-06-02T01:10:51.087Z,69.80
2017-06-02T01:13:18.449Z,69.90
2017-06-02T01:15:45.800Z,70.20
2017-06-02T01:18:13.127Z,70.10
2017-06-02T01:20:40.410Z,69.90
2017-06-02T01:23:08.176Z,69.80
2017-06-02T01:25:35.537Z,70.00
2017-06-02T01:28:02.821Z,69.80
2017-06-02T01:30:30.102Z,69.70
2017-06-02T01:32:57.439Z,69.70
2017-06-02T01:35:24.329Z,69.70
2017-06-02T01:37:51.710Z,69.80
2017-06-02T01:40:19.172Z,69.60
2017-06-02T01:42:46.505Z,69.00
2017-06-02T01:45:13.401Z,69.10
2017-06-02T01:47:40.758Z,68.90
2017-06-02T01:50:07.653Z,68.90
2017-06-02T01:52:35.019Z,69.40
2017-06-02T01:55:02.373Z,69.70
2017-06-02T01:57:29.260Z,69.70
2017-06-02T01:59:56.544Z,69.90
2017-06-02T02:02:23.866Z,70.10
2017-06-02T02:04:50.762Z,70.10
2017-06-02T02:07:18.054Z,69.70
2017-06-02T02:09:45.476Z,69.90
2017-06-02T02:12:12.831Z,70.00
2017-06-02T02:14:40.187Z,69.80
2017-06-02T02:17:07.545Z,69.90
2017-06-02T02:19:34.877Z,69.90
2017-06-02T02:22:02.162Z,70.30
2017-06-02T02:24:29.505Z,70.70
2017-06-02T02:26:56.806Z,70.80
2017-06-02T02:29:24.118Z,70.70
2017-06-02T02:31:51.082Z,70.70
2017-06-02T02:34:18.402Z,70.80
2017-06-02T02:36:45.693Z,71.00
2017-06-02T02:39:12.755Z,71.00
2017-06-02T02:41:40.102Z,71.30
2017-06-02T02:44:07.476Z,71.20
2017-06-02T02:46:34.831Z,71.50
2017-06-02T02:49:02.111Z,71.40
2017-06-02T02:51:29.394Z,71.50
2017-06-02T02:53:56.350Z,71.60
2017-06-02T02:56:23.639Z,71.80
2017-06-02T02:58:50.530Z,71.80
2017-06-02T03:01:17.909Z,71.50
2017-06-02T03:03:45.194Z,71.70
2017-06-02T03:06:12.081Z,71.70
2017-06-02T03:08:39.468Z,71.90
2017-06-02T03:11:06.769Z,71.90
2017-06-02T03:13:34.071Z,72.00
2017-06-02T03:16:01.529Z,71.80
2017-06-02T03:18:28.819Z,72.00
2017-06-02T03:20:56.106Z,71.80
2017-06-02T03:23:23.486Z,72.10
2017-06-02T03:25:50.878Z,72.10
2017-06-02T03:28:18.158Z,72.10
2017-06-02T03:30:45.562Z,71.80
2017-06-02T03:33:12.866Z,71.90
2017-06-02T03:35:40.157Z,71.80
2017-06-02T03:38:07.477Z,72.30
2017-06-02T03:40:34.764Z,72.70
2017-06-02T03:43:02.073Z,72.80
2017-06-02T03:45:29.403Z,72.70
2017-06-02T03:47:56.766Z,72.50
2017-06-02T03:50:24.065Z,72.70
2017-06-02T03:52:51.005Z,72.70
2017-06-02T03:55:17.996Z,72.80
2017-06-02T03:57:45.278Z,73.00
2017-06-02T04:00:13.426Z,73.20
2017-06-02T04:02:40.713Z,73.30
2017-06-02T04:05:07.989Z,73.60
2017-06-02T04:07:35.317Z,73.00
2017-06-02T04:10:02.654Z,72.80
2017-06-02T04:12:29.990Z,72.80
2017-06-02T04:14:57.349Z,73.20
2017-06-02T04:17:24.331Z,73.20
2017-06-02T04:19:51.237Z,73.40
2017-06-02T04:22:18.602Z,73.00
2017-06-02T04:24:45.889Z,72.90
2017-06-02T04:27:13.218Z,72.50
2017-06-02T04:29:40.558Z,72.10
2017-06-02T04:32:07.447Z,72.10
2017-06-02T04:34:34.808Z,72.00
2017-06-02T04:37:02.157Z,71.10
2017-06-02T04:39:29.446Z,70.60
2017-06-02T04:41:56.434Z,70.60
2017-06-02T04:44:23.783Z,70.20
2017-06-02T04:46:51.083Z,70.00
2017-06-02T04:49:18.397Z,69.90
2017-06-02T04:51:45.726Z,69.90
2017-06-02T04:54:13.015Z,69.90
2017-06-02T04:56:40.294Z,70.10
2017-06-02T04:59:07.619Z,70.10
2017-06-02T05:01:34.970Z,70.00
2017-06-02T05:04:02.323Z,70.00
2017-06-02T05:06:29.698Z,70.10
2017-06-02T05:08:56.986Z,70.50
2017-06-02T05:11:24.296Z,70.50
2017-06-02T05:13:51.654Z,69.70
2017-06-02T05:16:19.001Z,68.70
2017-06-02T05:18:46.297Z,68.80
2017-06-02T05:21:13.512Z,68.80
2017-06-02T05:23:40.457Z,68.70
2017-06-02T05:26:07.826Z,68.20
2017-06-02T05:28:35.177Z,68.40
2017-06-02T05:31:02.526Z,69.00
2017-06-02T05:33:29.522Z,69.00
2017-06-02T05:35:56.879Z,68.80
2017-06-02T05:38:24.258Z,68.70
2017-06-02T05:40:51.173Z,68.70
2017-06-02T05:43:18.642Z,67.50
2017-06-02T05:45:45.931Z,67.10
2017-06-02T05:48:13.258Z,67.20
2017-06-02T05:50:40.541Z,67.40
2017-06-02T05:53:07.834Z,67.40
2017-06-02T05:55:35.226Z,67.70
2017-06-02T05:58:02.553Z,67.20
2017-06-02T06:00:29.837Z,66.70
2017-06-02T06:02:57.178Z,67.00
2017-06-02T06:05:24.463Z,66.90
2017-06-02T06:07:51.746Z,66.70
2017-06-02T06:10:19.095Z,66.40
2017-06-02T06:12:46.374Z,65.80
2017-06-02T06:15:13.337Z,65.80
2017-06-02T06:17:40.666Z,65.80
2017-06-02T06:20:07.957Z,65.40
2017-06-02T06:22:35.301Z,64.80
2017-06-02T06:25:02.681Z,64.40
2017-06-02T06:27:29.968Z,63.60
2017-06-02T06:29:57.265Z,63.80
2017-06-02T06:32:24.729Z,63.80
2017-06-02T06:34:52.086Z,63.40
2017-06-02T06:37:19.746Z,63.10
2017-06-02T06:39:47.127Z,63.20
2017-06-02T06:42:14.422Z,63.50
2017-06-02T06:44:41.802Z,63.00
2017-06-02T06:47:09.088Z,63.00
2017-06-02T06:49:36.407Z,62.70
2017-06-02T06:52:03.503Z,62.70
2017-06-02T06:54:30.782Z,62.20
2017-06-02T06:56:58.074Z,62.40
2017-06-02T06:59:25.408Z,62.70
2017-06-02T07:01:52.694Z,61.90
2017-06-02T07:04:20.145Z,62.00
2017-06-02T07:06:47.539Z,61.20
2017-06-02T07:09:14.821Z,61.00
2017-06-02T07:11:42.115Z,60.70
2017-06-02T07:14:09.557Z,60.50
2017-06-02T07:16:36.921Z,60.80
2017-06-02T07:19:04.282Z,60.20
2017-06-02T07:21:31.621Z,60.30
2017-06-02T07:23:58.909Z,60.00
2017-06-02T07:26:26.238Z,59.90
2017-06-02T07:28:53.569Z,60.20
2017-06-02T07:31:20.884Z,60.20
2017-06-02T07:33:48.203Z,59.90
2017-06-02T07:36:15.664Z,59.80
2017-06-02T07:38:43.058Z,59.70
2017-06-02T07:41:10.342Z,60.10
2017-06-02T07:43:37.673Z,60.20
2017-06-02T07:46:04.584Z,60.20
2017-06-02T07:48:31.869Z,59.80
2017-06-02T07:50:58.827Z,59.80
2017-06-02T07:53:26.132Z,60.10
2017-06-02T07:55:53.027Z,60.10
2017-06-02T07:58:20.462Z,60.10
2017-06-02T08:00:47.762Z,59.70
2017-06-02T08:03:15.156Z,59.60
2017-06-02T08:05:42.489Z,59.40
2017-06-02T08:08:09.857Z,58.00
2017-06-02T08:10:37.140Z,58.30
2017-06-02T08:13:04.531Z,57.90
2017-06-02T08:15:31.850Z,58.40
2017-06-02T08:17:59.134Z,58.40
2017-06-02T08:20:26.485Z,58.50
2017-06-02T08:22:53.798Z,58.40
2017-06-02T08:25:21.165Z,58.60
2017-06-02T08:27:48.525Z,58.60
2017-06-02T08:30:15.830Z,58.90
2017-06-02T08:32:43.234Z,58.60
2017-06-02T08:35:10.577Z,58.40
2017-06-02T08:37:37.951Z,57.90
2017-06-02T08:40:04.876Z,57.90
2017-06-02T08:42:32.226Z,57.50
2017-06-02T08:44:59.509Z,57.70
2017-06-02T08:47:26.803Z,57.70
2017-06-02T08:49:54.126Z,57.30
2017-06-02T08:52:21.404Z,56.70
2017-06-02T08:54:48.698Z,57.10
2017-06-02T08:57:16.030Z,56.70
2017-06-02T08:59:43.409Z,56.70
2017-06-02T09:02:10.766Z,56.50
2017-06-02T09:04:38.111Z,56.40
2017-06-02T09:07:05.003Z,56.40
2017-06-02T09:09:32.333Z,56.10
2017-06-02T09:11:59.661Z,55.90
2017-06-02T09:14:27.059Z,55.60
2017-06-02T09:16:54.346Z,55.70
2017-06-02T09:19:21.757Z,56.00
2017-06-02T09:21:49.106Z,56.10
2017-06-02T09:24:16.398Z,55.90
2017-06-02T09:26:43.754Z,56.30
2017-06-02T09:29:10.761Z,56.30
2017-06-02T09:31:37.654Z,56.50
2017-06-02T09:34:05.070Z,55.80
2017-06-02T09:36:31.993Z,55.80
2017-06-02T09:38:59.281Z,55.00
2017-06-02T09:41:26.610Z,54.80
2017-06-02T09:43:53.493Z,54.80
2017-06-02T09:46:20.830Z,54.50
2017-06-02T09:48:48.177Z,54.80
2017-06-02T09:51:15.545Z,54.70
2017-06-02T09:53:42.909Z,55.00
2017-06-02T09:56:10.237Z,55.30
2017-06-02T09:58:37.218Z,55.30
2017-06-02T10:01:04.550Z,54.80
2017-06-02T10:03:31.906Z,54.90
2017-06-02T10:05:59.191Z,55.10
2017-06-02T10:08:26.514Z,54.20
2017-06-02T10:10:53.971Z,54.70
2017-06-02T10:13:21.266Z,55.00
2017-06-02T10:15:48.562Z,54.20
2017-06-02T10:18:15.938Z,54.80
2017-06-02T10:20:43.290Z,55.50
2017-06-02T10:23:10.345Z,55.50
2017-06-02T10:25:37.739Z,55.70
2017-06-02T10:28:05.013Z,55.50
2017-06-02T10:30:32.305Z,56.00
2017-06-02T10:32:59.638Z,57.10
2017-06-02T10:35:27.024Z,56.80
2017-06-02T10:37:54.326Z,56.30
2017-06-02T10:40:21.770Z,56.80
2017-06-02T10:42:48.656Z,56.80
2017-06-02T10:45:15.732Z,56.60
2017-06-02T10:47:43.270Z,56.20
2017-06-02T10:50:10.550Z,56.30
2017-06-02T10:52:37.928Z,55.20
2017-06-02T10:55:04.871Z,55.20
2017-06-02T10:57:32.213Z,56.00
2017-06-02T10:59:59.530Z,54.80
2017-06-02T11:02:26.862Z,55.30
2017-06-02T11:04:54.146Z,55.50
2017-06-02T11:07:21.526Z,56.60
2017-06-02T11:09:48.882Z,56.80
2017-06-02T11:12:16.168Z,55.50
2017-06-02T11:14:43.450Z,55.00
2017-06-02T11:17:10.792Z,55.00
2017-06-02T11:19:37.685Z,55.00
2017-06-02T11:22:04.982Z,55.10
2017-06-02T11:24:32.309Z,54.80
2017-06-02T11:26:59.593Z,55.10
2017-06-02T11:29:26.478Z,55.10
2017-06-02T11:31:53.446Z,55.40
2017-06-02T11:34:20.798Z,55.30
2017-06-02T11:36:48.156Z,55.30
2017-06-02T11:39:15.516Z,55.50
2017-06-02T11:41:42.814Z,54.80
2017-06-02T11:44:10.122Z,54.80
2017-06-02T11:46:37.170Z,54.70
2017-06-02T11:49:04.463Z,55.20
2017-06-02T11:51:31.346Z,55.20
2017-06-02T11:53:58.681Z,55.00
2017-06-02T11:56:25.618Z,55.00
2017-06-02T11:58:52.899Z,53.50
2017-06-02T12:01:20.231Z,53.40
2017-06-02T12:03:47.518Z,52.90
2017-06-02T12:06:14.814Z,52.90
2017-06-02T12:08:42.150Z,53.90
2017-06-02T12:11:09.034Z,53.90
2017-06-02T12:13:36.693Z,54.10
2017-06-02T12:16:04.017Z,53.60
2017-06-02T12:18:30.979Z,53.60
2017-06-02T12:20:58.259Z,54.50
2017-06-02T12:23:25.198Z,54.50
2017-06-02T12:25:52.513Z,54.30
2017-06-02T12:28:19.806Z,54.10
2017-06-02T12:30:47.130Z,54.20
2017-06-02T12:33:14.415Z,54.00
2017-06-02T12:35:41.735Z,53.50
2017-06-02T12:38:09.093Z,54.60
2017-06-02T12:40:36.381Z,55.00
2017-06-02T12:43:03.694Z,54.60
2017-06-02T12:45:31.838Z,54.20
2017-06-02T12:47:59.151Z,53.60
2017-06-02T12:50:26.429Z,53.10
2017-06-02T12:52:53.789Z,52.60
2017-06-02T12:55:21.073Z,52.80
2017-06-02T12:57:47.965Z,52.80
2017-06-02T13:00:15.299Z,52.70
2017-06-02T13:02:43.233Z,52.00
2017-06-02T13:05:10.518Z,51.70
2017-06-02T13:07:37.455Z,51.70
2017-06-02T13:10:04.817Z,50.70
2017-06-02T13:12:32.106Z,50.30
2017-06-02T13:14:59.525Z,50.60
2017-06-02T13:17:26.417Z,50.60
2017-06-02T13:19:53.721Z,51.20
2017-06-02T13:22:21.047Z,51.10
2017-06-02T13:24:48.329Z,51.10
2017-06-02T13:27:15.714Z,50.90
2017-06-02T13:29:43.157Z,50.50
2017-06-02T13:32:10.513Z,50.50
2017-06-02T13:34:37.392Z,50.50
2017-06-02T13:37:04.397Z,50.90
2017-06-02T13:39:31.685Z,50.50
2017-06-02T13:41:59.014Z,50.40
2017-06-02T13:44:25.998Z,50.40
2017-06-02T13:46:53.317Z,50.20
2017-06-02T13:49:20.670Z,49.80
2017-06-02T13:51:48.426Z,50.40
2017-06-02T13:54:17.182Z,50.90
2017-06-02T13:56:44.463Z,50.60
2017-06-02T13:59:12.208Z,50.60
2017-06-02T14:01:39.494Z,51.20
2017-06-02T14:04:06.857Z,50.80
2017-06-02T14:06:34.215Z,50.80
2017-06-02T14:09:01.497Z,50.90
2017-06-02T14:11:28.787Z,51.20
2017-06-02T14:13:56.218Z,51.20
2017-06-02T14:16:23.499Z,50.60
2017-06-02T14:18:50.997Z,50.40
2017-06-02T14:21:18.329Z,50.20
2017-06-02T14:23:45.640Z,50.00
2017-06-02T14:26:12.545Z,50.00
2017-06-02T14:28:39.925Z,50.20
2017-06-02T14:31:07.201Z,49.60
2017-06-02T14:33:34.124Z,49.60
2017-06-02T14:36:01.457Z,49.40
2017-06-02T14:38:28.742Z,49.40
2017-06-02T14:40:55.654Z,49.40
2017-06-02T14:43:23.026Z,48.90
2017-06-02T14:45:50.346Z,49.30
2017-06-02T14:48:17.642Z,49.40
2017-06-02T14:50:45.050Z,48.90
2017-06-02T14:53:12.334Z,49.10
2017-06-02T14:55:39.618Z,49.40
2017-06-02T14:58:06.945Z,49.80
2017-06-02T15:00:34.301Z,49.90
2017-06-02T15:03:01.597Z,50.20
2017-06-02T15:05:28.926Z,50.10
2017-06-02T15:07:56.225Z,49.80
2017-06-02T15:10:23.514Z,48.80
2017-06-02T15:12:50.507Z,48.80
2017-06-02T15:15:17.785Z,49.70
2017-06-02T15:17:45.070Z,50.10
2017-06-02T15:20:12.389Z,49.90
2017-06-02T15:22:39.669Z,49.70
2017-06-02T15:25:06.654Z,49.70
2017-06-02T15:27:34.011Z,50.20
2017-06-02T15:30:01.296Z,50.50
2017-06-02T15:32:28.574Z,49.90
2017-06-02T15:34:55.917Z,48.60
2017-06-02T15:37:23.249Z,50.60
2017-06-02T15:39:50.575Z,53.50
2017-06-02T15:42:17.922Z,54.20
2017-06-02T15:44:45.202Z,54.90
2017-06-02T15:47:12.530Z,54.50
2017-06-02T15:49:39.905Z,54.40
2017-06-02T15:52:07.195Z,53.80
2017-06-02T15:54:34.086Z,53.80
2017-06-02T15:57:01.425Z,55.10
2017-06-02T15:59:28.942Z,55.50
2017-06-02T16:01:56.242Z,55.80
2017-06-02T16:04:23.609Z,56.30
2017-06-02T16:06:50.941Z,56.80
2017-06-02T16:09:18.222Z,56.90
2017-06-02T16:11:45.170Z,56.90
2017-06-02T16:14:12.460Z,58.30
2017-06-02T16:16:39.358Z,58.30
2017-06-02T16:19:06.717Z,59.00
2017-06-02T16:21:34.080Z,59.00
2017-06-02T16:24:01.447Z,59.50
2017-06-02T16:26:28.526Z,59.40
2017-06-02T16:28:55.805Z,60.30
2017-06-02T16:31:23.090Z,60.30
2017-06-02T16:33:50.654Z,60.70
2017-06-02T16:36:17.550Z,60.70
2017-06-02T16:38:44.826Z,61.70
2017-06-02T16:41:12.517Z,61.70
2017-06-02T16:43:39.873Z,61.50
2017-06-02T16:46:06.822Z,61.50
2017-06-02T16:48:34.173Z,61.50
2017-06-02T16:51:01.457Z,61.70
2017-06-02T16:53:28.789Z,61.70
2017-06-02T16:55:55.718Z,61.70
2017-06-02T16:58:23.005Z,61.70
2017-06-02T17:00:49.940Z,61.70
2017-06-02T17:03:17.287Z,62.80
2017-06-02T17:05:44.580Z,62.60
2017-06-02T17:08:11.905Z,62.20
2017-06-02T17:10:39.238Z,62.30
2017-06-02T17:13:06.610Z,62.40
2017-06-02T17:15:33.889Z,62.60
2017-06-02T17:18:01.262Z,63.10
2017-06-02T17:20:28.578Z,63.30
2017-06-02T17:22:55.938Z,63.30
2017-06-02T17:25:23.288Z,63.20
2017-06-02T17:27:50.645Z,63.30
2017-06-02T17:30:18.006Z,63.30
2017-06-02T17:32:45.354Z,62.60
2017-06-02T17:35:12.345Z,62.60
2017-06-02T17:37:39.629Z,62.40
2017-06-02T17:40:07.670Z,62.20
2017-06-02T17:42:34.966Z,62.50
2017-06-02T17:45:01.951Z,62.50
2017-06-02T17:47:30.033Z,64.00
2017-06-02T17:49:56.955Z,64.00
2017-06-02T17:52:23.897Z,63.60
2017-06-02T17:54:50.861Z,63.90
2017-06-02T17:57:18.139Z,65.20
2017-06-02T17:59:45.053Z,65.20
2017-06-02T18:02:12.092Z,65.10
2017-06-02T18:04:39.376Z,65.30
2017-06-02T18:07:06.730Z,64.60
2017-06-02T18:09:34.099Z,64.90
2017-06-02T18:12:01.108Z,64.90
2017-06-02T18:14:28.506Z,64.20
2017-06-02T18:16:55.793Z,64.10
2017-06-02T18:19:23.134Z,63.70
2017-06-02T18:21:50.418Z,63.10
2017-06-02T18:24:17.702Z,62.80
2017-06-02T18:26:45.053Z,62.40
2017-06-02T18:29:12.371Z,62.40
2017-06-02T18:31:39.651Z,62.30
2017-06-02T18:34:07.001Z,62.50
2017-06-02T18:36:34.298Z,62.50
2017-06-02T18:39:01.619Z,62.60
2017-06-02T18:41:28.970Z,62.70
2017-06-02T18:43:56.252Z,62.60
2017-06-02T18:46:23.582Z,62.90
2017-06-02T18:48:50.977Z,62.90
2017-06-02T18:51:17.858Z,62.90
2017-06-02T18:53:44.737Z,63.00
2017-06-02T18:56:12.071Z,63.50
2017-06-02T18:58:39.437Z,64.20
2017-06-02T19:01:06.325Z,64.20
2017-06-02T19:03:33.306Z,64.10
2017-06-02T19:06:00.603Z,65.10
2017-06-02T19:08:27.573Z,65.10
2017-06-02T19:10:54.997Z,66.40
2017-06-02T19:13:22.346Z,67.20
2017-06-02T19:15:49.706Z,67.80
2017-06-02T19:18:17.062Z,68.40
2017-06-02T19:20:44.417Z,68.60
2017-06-02T19:23:11.365Z,68.60
2017-06-02T19:25:38.717Z,68.30
2017-06-02T19:28:06.073Z,67.60
2017-06-02T19:30:33.021Z,67.60
2017-06-02T19:32:59.958Z,67.30
2017-06-02T19:35:27.246Z,67.60
2017-06-02T19:37:54.521Z,67.60
2017-06-02T19:40:22.109Z,67.00
2017-06-02T19:42:49.493Z,66.30
2017-06-02T19:45:16.846Z,66.40
2017-06-02T19:47:44.198Z,66.80
2017-06-02T19:50:11.487Z,67.00
2017-06-02T19:52:38.818Z,67.00
2017-06-02T19:55:05.745Z,67.00
2017-06-02T19:57:33.034Z,67.90
2017-06-02T20:00:00.317Z,68.30
2017-06-02T20:02:27.721Z,68.50
2017-06-02T20:04:55.181Z,68.30
2017-06-02T20:07:22.540Z,68.10
2017-06-02T20:09:50.405Z,67.50
2017-06-02T20:12:17.694Z,67.50
2017-06-02T20:14:45.018Z,67.50
2017-06-02T20:17:12.376Z,67.90
2017-06-02T20:19:39.662Z,69.30
2017-06-02T20:22:06.946Z,70.10
2017-06-02T20:24:34.038Z,70.10
2017-06-02T20:27:00.923Z,70.20
2017-06-02T20:29:27.809Z,69.80
2017-06-02T20:31:55.156Z,69.80
2017-06-02T20:34:22.543Z,71.90
2017-06-02T20:36:49.826Z,72.30
2017-06-02T20:39:17.158Z,72.60
2017-06-02T20:41:44.209Z,72.60
2017-06-02T20:44:11.494Z,73.30
2017-06-02T20:46:38.894Z,73.60
2017-06-02T20:49:05.782Z,73.60
2017-06-02T20:51:33.077Z,73.40
2017-06-02T20:54:00.416Z,73.50
2017-06-02T20:56:27.707Z,73.30
2017-06-02T20:58:54.994Z,73.30
2017-06-02T21:01:22.330Z,73.80
2017-06-02T21:03:49.622Z,74.40
2017-06-02T21:06:16.914Z,74.80
2017-06-02T21:08:44.290Z,74.80
2017-06-02T21:11:11.238Z,74.80
2017-06-02T21:13:39.057Z,74.70
2017-06-02T21:16:06.020Z,74.60
2017-06-02T21:18:33.327Z,75.10
2017-06-02T21:21:00.676Z,75.60
2017-06-02T21:23:28.022Z,75.90
2017-06-02T21:25:55.378Z,76.40
2017-06-02T21:28:22.730Z,76.90
2017-06-02T21:30:50.098Z,77.40
2017-06-02T21:33:17.447Z,77.60
2017-06-02T21:35:44.797Z,77.70
2017-06-02T21:38:11.742Z,77.70
2017-06-02T21:40:39.109Z,77.60
2017-06-02T21:43:06.466Z,77.80
2017-06-02T21:45:33.802Z,78.20
2017-06-02T21:48:01.085Z,78.30
2017-06-02T21:50:28.421Z,78.10
2017-06-02T21:52:55.822Z,78.00
2017-06-02T21:55:23.105Z,77.30
2017-06-02T21:57:50.522Z,76.50
2017-06-02T22:00:17.901Z,76.00
2017-06-02T22:02:45.205Z,75.60
2017-06-02T22:05:12.495Z,75.60
2017-06-02T22:07:39.820Z,75.60
2017-06-02T22:10:06.775Z,75.60
2017-06-02T22:12:34.122Z,75.30
2017-06-02T22:15:01.477Z,75.30
2017-06-02T22:17:28.822Z,75.50
2017-06-02T22:19:56.101Z,76.00
2017-06-02T22:22:23.138Z,76.00
2017-06-02T22:24:50.490Z,75.80
2017-06-02T22:27:17.790Z,75.70
2017-06-02T22:29:45.193Z,75.70
2017-06-02T22:32:12.186Z,75.70
2017-06-02T22:34:39.078Z,75.80
2017-06-02T22:37:06.405Z,75.70
2017-06-02T22:39:33.686Z,75.70
2017-06-02T22:42:01.053Z,75.20
2017-06-02T22:44:27.989Z,75.30
2017-06-02T22:46:55.358Z,74.70
2017-06-02T22:49:22.714Z,75.10
2017-06-02T22:51:50.454Z,75.40
2017-06-02T22:54:17.944Z,75.60
2017-06-02T22:56:45.305Z,75.60
2017-06-02T22:59:12.633Z,75.30
2017-06-02T23:01:40.003Z,75.20
2017-06-02T23:04:07.366Z,75.20
2017-06-02T23:06:34.821Z,75.20
2017-06-02T23:09:02.146Z,75.40
2017-06-02T23:11:29.544Z,75.30
2017-06-02T23:13:56.885Z,75.20
2017-06-02T23:16:24.179Z,75.10
2017-06-02T23:18:51.269Z,75.10
2017-06-02T23:21:18.197Z,74.70
2017-06-02T23:23:45.506Z,74.40
2017-06-02T23:26:12.857Z,74.80
2017-06-02T23:28:39.825Z,74.80
2017-06-02T23:31:07.139Z,75.10
2017-06-02T23:33:34.057Z,75.10
2017-06-02T23:36:01.450Z,75.60
2017-06-02T23:38:28.409Z,75.60
2017-06-02T23:40:55.757Z,75.70
2017-06-02T23:43:23.084Z,75.80
2017-06-02T23:45:50.375Z,75.70
2017-06-02T23:48:17.763Z,75.80
2017-06-02T23:50:45.118Z,75.90
2017-06-02T23:53:12.401Z,75.90
2017-06-02T23:55:39.715Z,76.00
2017-06-02T23:58:07.073Z,75.90
